Latest Weather Observations for St Kilda Harbour RMYS

IDV60801

Issued at 1:02 am EST Sunday 24 July 2016 (issued every 30 minutes, with the page automatically refreshed every 10 minutes)

About weather observations | Map of weather stations | Latest weather observations for VIC | Other Formats
Station Details ID: 086220 Name: ST KILDA HARBOUR - RMYS Lat: -37.86 Lon: 144.96 Height: 6.4 m
Data from the previous 72 hours. | See also: Recent months for locations in Victoria
Date/Time
EST
Temp
°C
App
Temp
°C
Dew
Point
°C
Rel
Hum
%
Delta-T
°C
Wind Press
QNH
hPa
Press
MSL
hPa
Rain since
9am
mm
Dir  Spd
km/h
Gust
km/h
Spd
kts
Gust
kts
24/01:00am - - - - - NNW 15 22 8 12 - - -
24/12:30am - - - - - NNW 17 20 9 11 - - -
24/12:00am - - - - - NNW 17 22 9 12 - - -
 
Date/Time
EST
Temp
°C
App
Temp
°C
Dew
Point
°C
Rel
Hum
%
Delta-T
°C
Wind Press
QNH
hPa
Press
MSL
hPa
Rain since
9am
mm
Dir  Spd
km/h
Gust
km/h
Spd
kts
Gust
kts
23/11:30pm - - - - - NW 17 19 9 10 - - -
23/11:00pm - - - - - NW 17 20 9 11 - - -
23/10:30pm - - - - - WNW 20 24 11 13 - - -
23/10:00pm - - - - - NW 22 26 12 14 - - -
23/09:30pm - - - - - NW 24 30 13 16 - - -
23/09:00pm - - - - - NW 26 30 14 16 - - -
23/08:30pm - - - - - WNW 28 37 15 20 - - -
23/08:00pm - - - - - WNW 26 32 14 17 - - -
23/07:30pm - - - - - W 28 33 15 18 - - -
23/07:00pm - - - - - WNW 24 32 13 17 - - -
23/06:30pm - - - - - WNW 24 33 13 18 - - -
23/06:26pm - - - - - W 24 33 13 18 - - -
23/06:00pm - - - - - WSW 37 46 20 25 - - -
23/05:48pm - - - - - W 32 54 17 29 - - -
23/05:30pm - - - - - WNW 28 33 15 18 - - -
23/05:00pm - - - - - W 35 44 19 24 - - -
23/04:30pm - - - - - W 33 41 18 22 - - -
23/04:00pm - - - - - W 43 56 23 30 - - -
23/03:30pm - - - - - W 41 54 22 29 - - -
23/03:00pm - - - - - W 37 50 20 27 - - -
23/02:30pm - - - - - W 43 54 23 29 - - -
23/02:20pm - - - - - W 44 63 24 34 - - -
23/02:11pm - - - - - WSW 37 63 20 34 - - -
23/02:09pm - - - - - WSW 33 57 18 31 - - -
23/02:00pm - - - - - W 37 44 20 24 - - -
23/01:40pm - - - - - WSW 50 70 27 38 - - -
23/01:30pm - - - - - W 44 61 24 33 - - -
23/01:00pm - - - - - W 43 59 23 32 - - -
23/12:30pm - - - - - W 44 57 24 31 - - -
23/12:00pm - - - - - W 39 50 21 27 - - -
23/11:30am - - - - - W 41 54 22 29 - - -
23/11:00am - - - - - W 46 56 25 30 - - -
23/10:30am - - - - - WSW 44 57 24 31 - - -
23/10:00am - - - - - W 43 61 23 33 - - -
23/09:30am - - - - - W 35 41 19 22 - - -
23/09:00am - - - - - W 35 43 19 23 - - -
23/08:30am - - - - - W 33 43 18 23 - - -
23/08:00am - - - - - W 32 39 17 21 - - -
23/07:30am - - - - - W 32 41 17 22 - - -
23/07:02am - - - - - W 43 65 23 35 - - -
23/07:00am - - - - - W 41 57 22 31 - - -
23/06:30am - - - - - W 41 50 22 27 - - -
23/06:00am - - - - - WSW 52 67 28 36 - - -
23/05:46am - - - - - W 43 61 23 33 - - -
23/05:30am - - - - - W 39 54 21 29 - - -
23/05:00am - - - - - W 43 56 23 30 - - -
23/04:30am - - - - - W 39 54 21 29 - - -
23/04:00am - - - - - W 37 50 20 27 - - -
23/03:30am - - - - - W 46 57 25 31 - - -
23/03:00am - - - - - W 54 76 29 41 - - -
23/02:56am - - - - - W 52 72 28 39 - - -
23/02:30am - - - - - W 52 69 28 37 - - -
23/02:00am - - - - - WNW 48 65 26 35 - - -
23/01:43am - - - - - NW 46 65 25 35 - - -
23/01:30am - - - - - NW 41 54 22 29 - - -
23/01:00am - - - - - NW 50 63 27 34 - - -
23/12:43am - - - - - NNW 28 46 15 25 - - -
23/12:30am - - - - - NW 28 35 15 19 - - -
23/12:00am - - - - - NW 32 43 17 23 - - -
 
Date/Time
EST
Temp
°C
App
Temp
°C
Dew
Point
°C
Rel
Hum
%
Delta-T
°C
Wind Press
QNH
hPa
Press
MSL
hPa
Rain since
9am
mm
Dir  Spd
km/h
Gust
km/h
Spd
kts
Gust
kts
22/11:30pm - - - - - W 30 50 16 27 - - -
22/11:29pm - - - - - W 28 48 15 26 - - -
22/11:00pm - - - - - W 26 35 14 19 - - -
22/10:30pm - - - - - W 32 43 17 23 - - -
22/10:19pm - - - - - NW 30 57 16 31 - - -
22/10:00pm - - - - - NNW 19 28 10 15 - - -
22/09:30pm - - - - - N 19 24 10 13 - - -
22/09:00pm - - - - - N 13 17 7 9 - - -
22/08:30pm - - - - - NW 9 15 5 8 - - -
22/08:00pm - - - - - NNW 11 17 6 9 - - -
22/07:30pm - - - - - NNW 19 22 10 12 - - -
22/07:00pm - - - - - NNW 13 17 7 9 - - -
22/06:30pm - - - - - WNW 20 26 11 14 - - -
22/06:19pm - - - - - W 26 35 14 19 - - -
22/06:00pm - - - - - W 32 54 17 29 - - -
22/05:56pm - - - - - WNW 20 46 11 25 - - -
22/05:30pm - - - - - NW 20 28 11 15 - - -
22/05:00pm - - - - - NW 26 33 14 18 - - -
22/04:30pm - - - - - NW 30 39 16 21 - - -
22/04:00pm - - - - - NW 32 41 17 22 - - -
22/03:30pm - - - - - WNW 32 39 17 21 - - -
22/03:00pm - - - - - W 41 48 22 26 - - -
22/02:49pm - - - - - W 48 65 26 35 - - -
22/02:38pm - - - - - WSW 63 83 34 45 - - -
22/02:30pm - - - - - WSW 63 82 34 44 - - -
22/02:24pm - - - - - W 56 82 30 44 - - -
22/02:23pm - - - - - WNW 54 69 29 37 - - -
22/02:00pm - - - - - NW 48 59 26 32 - - -
22/01:46pm - - - - - NW 41 63 22 34 - - -
22/01:30pm - - - - - NW 52 63 28 34 - - -
22/01:00pm - - - - - NW 43 65 23 35 - - -
22/12:30pm - - - - - NW 41 59 22 32 - - -
22/12:00pm - - - - - NW 35 50 19 27 - - -
22/11:30am - - - - - NW 35 48 19 26 - - -
22/11:23am - - - - - NW 39 59 21 32 - - -
22/11:00am - - - - - NW 43 54 23 29 - - -
22/10:30am - - - - - NNW 33 54 18 29 - - -
22/10:00am - - - - - NW 43 61 23 33 - - -
22/09:43am - - - - - NW 41 69 22 37 - - -
22/09:30am - - - - - NNW 32 46 17 25 - - -
22/09:27am - - - - - NNW 28 46 15 25 - - -
22/09:00am - - - - - NNW 24 30 13 16 - - -
22/08:30am - - - - - NNW 26 33 14 18 - - -
22/08:00am - - - - - NW 30 41 16 22 - - -
22/07:30am - - - - - NNW 22 30 12 16 - - -
22/07:00am - - - - - N 20 30 11 16 - - -
22/06:30am - - - - - N 30 43 16 23 - - -
22/06:00am - - - - - NNW 37 56 20 30 - - -
22/05:30am - - - - - N 33 56 18 30 - - -
22/05:00am - - - - - N 33 56 18 30 - - -
22/04:30am - - - - - N 39 70 21 38 - - -
22/04:00am - - - - - N 41 69 22 37 - - -
22/03:30am - - - - - N 46 69 25 37 - - -
22/03:00am - - - - - N 43 65 23 35 - - -
22/02:30am - - - - - N 46 72 25 39 - - -
22/02:00am - - - - - N 48 70 26 38 - - -
22/01:30am - - - - - N 39 59 21 32 - - -
22/01:00am - - - - - N 37 63 20 34 - - -
22/12:39am - - - - - N 35 57 19 31 - - -
22/12:30am - - - - - N 32 46 17 25 - - -
22/12:00am - - - - - N 30 50 16 27 - - -
 
Date/Time
EST
Temp
°C
App
Temp
°C
Dew
Point
°C
Rel
Hum
%
Delta-T
°C
Wind Press
QNH
hPa
Press
MSL
hPa
Rain since
9am
mm
Dir  Spd
km/h
Gust
km/h
Spd
kts
Gust
kts
21/11:30pm - - - - - N 32 54 17 29 - - -
21/11:00pm - - - - - N 43 61 23 33 - - -
21/10:32pm - - - - - N 39 57 21 31 - - -
21/10:30pm - - - - - N 41 57 22 31 - - -
21/10:00pm - - - - - N 37 57 20 31 - - -
21/09:40pm - - - - - N 37 57 20 31 - - -
21/09:30pm - - - - - N 35 52 19 28 - - -
21/09:00pm - - - - - N 33 50 18 27 - - -
21/08:30pm - - - - - NNE 32 52 17 28 - - -
21/08:25pm - - - - - NNE 28 46 15 25 - - -
21/08:00pm - - - - - NNE 24 37 13 20 - - -
21/07:30pm - - - - - N 28 43 15 23 - - -
21/07:00pm - - - - - N 28 48 15 26 - - -
21/06:55pm - - - - - N 28 48 15 26 - - -
21/06:30pm - - - - - N 26 39 14 21 - - -
21/06:00pm - - - - - N 20 32 11 17 - - -
21/05:30pm - - - - - N 22 35 12 19 - - -
21/05:00pm - - - - - N 26 37 14 20 - - -
21/04:30pm - - - - - N 26 39 14 21 - - -
21/04:00pm - - - - - N 24 32 13 17 - - -
21/03:30pm - - - - - NNW 32 46 17 25 - - -
21/03:00pm - - - - - NNW 24 41 13 22 - - -
21/02:30pm - - - - - N 24 32 13 17 - - -
21/02:00pm - - - - - N 22 37 12 20 - - -
21/01:30pm - - - - - N 24 32 13 17 - - -
21/01:00pm - - - - - N 26 41 14 22 - - -
21/12:30pm - - - - - N 24 33 13 18 - - -
21/12:00pm - - - - - N 24 33 13 18 - - -
21/11:30am - - - - - N 20 33 11 18 - - -
21/11:00am - - - - - NE 7 13 4 7 - - -
21/10:30am - - - - - NNE 13 22 7 12 - - -
21/10:00am - - - - - NE 11 17 6 9 - - -
21/09:30am - - - - - NNE 7 11 4 6 - - -
21/09:00am - - - - - NNE 11 15 6 8 - - -
21/08:30am - - - - - NNE 9 13 5 7 - - -
21/08:00am - - - - - NE 19 24 10 13 - - -
21/07:30am - - - - - NE 11 17 6 9 - - -
21/07:00am - - - - - NNE 7 9 4 5 - - -
21/06:30am - - - - - NNE 6 7 3 4 - - -
21/06:00am - - - - - NE 9 13 5 7 - - -
21/05:30am - - - - - NE 7 11 4 6 - - -
21/05:00am - - - - - NNE 6 9 3 5 - - -
21/04:30am - - - - - NE 6 9 3 5 - - -
21/04:00am - - - - - NE 6 7 3 4 - - -
21/03:30am - - - - - NE 4 6 2 3 - - -
21/03:00am - - - - - N 2 4 1 2 - - -
21/02:30am - - - - - NNW 4 6 2 3 - - -
21/02:00am - - - - - NNW 4 6 2 3 - - -
21/01:30am - - - - - NNW 9 13 5 7 - - -

Other Formats:

Comma delimited format used in spreadsheet applications
http://www.bom.gov.au/fwo/IDV60801/IDV60801.95864.axf

JavaScript Object Notation format (JSON) in row-major order
http://www.bom.gov.au/fwo/IDV60801/IDV60801.95864.json